sensor_id;sensor_type;location;lat;lon;timestamp;P1;durP1;ratioP1;P2;durP2;ratioP2
20844;SDS011;10583;49.084;8.646;2022-09-24T00:01:46;6.47;;;6.47;;
20844;SDS011;10583;49.084;8.646;2022-09-24T00:04:15;6.00;;;6.00;;
20844;SDS011;10583;49.084;8.646;2022-09-24T00:06:43;6.63;;;6.63;;
20844;SDS011;10583;49.084;8.646;2022-09-24T00:09:11;6.03;;;6.03;;
20844;SDS011;10583;49.084;8.646;2022-09-24T00:11:40;6.10;;;6.10;;
20844;SDS011;10583;49.084;8.646;2022-09-24T00:14:08;6.40;;;6.40;;
20844;SDS011;10583;49.084;8.646;2022-09-24T00:16:35;6.23;;;6.23;;
20844;SDS011;10583;49.084;8.646;2022-09-24T00:19:02;6.30;;;6.30;;
20844;SDS011;10583;49.084;8.646;2022-09-24T00:21:32;6.20;;;6.20;;
20844;SDS011;10583;49.084;8.646;2022-09-24T00:24:01;6.57;;;6.57;;
20844;SDS011;10583;49.084;8.646;2022-09-24T00:26:29;5.93;;;5.93;;
20844;SDS011;10583;49.084;8.646;2022-09-24T00:29:14;5.80;;;5.80;;
20844;SDS011;10583;49.084;8.646;2022-09-24T00:31:42;6.03;;;6.03;;
20844;SDS011;10583;49.084;8.646;2022-09-24T00:34:09;6.53;;;6.53;;
20844;SDS011;10583;49.084;8.646;2022-09-24T00:36:37;6.47;;;6.47;;
20844;SDS011;10583;49.084;8.646;2022-09-24T00:39:04;5.83;;;5.83;;
20844;SDS011;10583;49.084;8.646;2022-09-24T00:41:32;5.33;;;5.33;;
20844;SDS011;10583;49.084;8.646;2022-09-24T00:44:00;6.00;;;6.00;;
20844;SDS011;10583;49.084;8.646;2022-09-24T00:47:07;6.27;;;6.27;;
20844;SDS011;10583;49.084;8.646;2022-09-24T00:49:39;6.27;;;6.27;;
20844;SDS011;10583;49.084;8.646;2022-09-24T00:52:07;6.20;;;6.20;;
20844;SDS011;10583;49.084;8.646;2022-09-24T00:54:34;5.80;;;5.80;;
20844;SDS011;10583;49.084;8.646;2022-09-24T00:57:02;5.80;;;5.80;;
20844;SDS011;10583;49.084;8.646;2022-09-24T00:59:29;5.30;;;5.30;;
20844;SDS011;10583;49.084;8.646;2022-09-24T01:01:57;5.47;;;5.47;;
20844;SDS011;10583;49.084;8.646;2022-09-24T01:04:25;5.27;;;5.27;;
20844;SDS011;10583;49.084;8.646;2022-09-24T01:06:53;5.93;;;5.93;;
20844;SDS011;10583;49.084;8.646;2022-09-24T01:09:22;6.10;;;6.10;;
20844;SDS011;10583;49.084;8.646;2022-09-24T01:11:54;5.53;;;5.53;;
20844;SDS011;10583;49.084;8.646;2022-09-24T01:14:41;5.50;;;5.50;;
20844;SDS011;10583;49.084;8.646;2022-09-24T01:17:27;6.77;;;6.77;;
20844;SDS011;10583;49.084;8.646;2022-09-24T01:20:05;5.47;;;5.47;;
20844;SDS011;10583;49.084;8.646;2022-09-24T01:23:20;5.80;;;5.80;;
20844;SDS011;10583;49.084;8.646;2022-09-24T01:26:11;6.07;;;6.07;;
20844;SDS011;10583;49.084;8.646;2022-09-24T01:28:55;5.50;;;5.50;;
20844;SDS011;10583;49.084;8.646;2022-09-24T01:31:33;6.17;;;6.17;;
20844;SDS011;10583;49.084;8.646;2022-09-24T01:34:05;5.53;;;5.53;;
20844;SDS011;10583;49.084;8.646;2022-09-24T01:36:36;5.73;;;5.73;;
20844;SDS011;10583;49.084;8.646;2022-09-24T01:39:05;5.63;;;5.63;;
20844;SDS011;10583;49.084;8.646;2022-09-24T01:41:34;6.17;;;6.17;;
20844;SDS011;10583;49.084;8.646;2022-09-24T01:44:02;5.57;;;5.57;;
20844;SDS011;10583;49.084;8.646;2022-09-24T01:46:30;6.50;;;6.50;;
20844;SDS011;10583;49.084;8.646;2022-09-24T01:48:59;6.70;;;6.70;;
20844;SDS011;10583;49.084;8.646;2022-09-24T01:51:27;6.13;;;6.13;;
20844;SDS011;10583;49.084;8.646;2022-09-24T01:54:00;6.00;;;6.00;;
20844;SDS011;10583;49.084;8.646;2022-09-24T01:56:31;5.30;;;5.30;;
20844;SDS011;10583;49.084;8.646;2022-09-24T01:59:04;5.10;;;5.10;;
20844;SDS011;10583;49.084;8.646;2022-09-24T02:01:37;5.50;;;5.50;;
20844;SDS011;10583;49.084;8.646;2022-09-24T02:04:10;5.63;;;5.63;;
20844;SDS011;10583;49.084;8.646;2022-09-24T02:06:41;5.37;;;5.37;;
20844;SDS011;10583;49.084;8.646;2022-09-24T02:09:28;5.50;;;5.50;;
20844;SDS011;10583;49.084;8.646;2022-09-24T02:11:56;5.60;;;5.60;;
20844;SDS011;10583;49.084;8.646;2022-09-24T02:14:25;4.70;;;4.70;;
20844;SDS011;10583;49.084;8.646;2022-09-24T02:16:55;5.53;;;5.53;;
20844;SDS011;10583;49.084;8.646;2022-09-24T02:19:25;5.80;;;5.80;;
20844;SDS011;10583;49.084;8.646;2022-09-24T02:21:55;6.10;;;6.10;;
20844;SDS011;10583;49.084;8.646;2022-09-24T02:24:25;5.40;;;5.40;;
20844;SDS011;10583;49.084;8.646;2022-09-24T02:26:59;5.17;;;5.17;;
20844;SDS011;10583;49.084;8.646;2022-09-24T02:29:27;5.87;;;5.87;;
20844;SDS011;10583;49.084;8.646;2022-09-24T02:31:55;5.07;;;5.07;;
20844;SDS011;10583;49.084;8.646;2022-09-24T02:34:26;5.17;;;5.17;;
20844;SDS011;10583;49.084;8.646;2022-09-24T02:36:57;5.50;;;5.50;;
20844;SDS011;10583;49.084;8.646;2022-09-24T02:39:29;5.27;;;5.27;;
20844;SDS011;10583;49.084;8.646;2022-09-24T02:41:56;5.30;;;5.30;;
20844;SDS011;10583;49.084;8.646;2022-09-24T02:44:24;5.60;;;5.60;;
20844;SDS011;10583;49.084;8.646;2022-09-24T02:46:51;5.17;;;5.17;;
20844;SDS011;10583;49.084;8.646;2022-09-24T02:49:19;5.57;;;5.57;;
20844;SDS011;10583;49.084;8.646;2022-09-24T02:51:46;5.53;;;5.53;;
20844;SDS011;10583;49.084;8.646;2022-09-24T02:54:13;5.70;;;5.70;;
20844;SDS011;10583;49.084;8.646;2022-09-24T02:56:40;5.80;;;5.80;;
20844;SDS011;10583;49.084;8.646;2022-09-24T02:59:07;6.27;;;6.27;;
20844;SDS011;10583;49.084;8.646;2022-09-24T03:01:34;6.00;;;6.00;;
20844;SDS011;10583;49.084;8.646;2022-09-24T03:04:02;5.50;;;5.50;;
20844;SDS011;10583;49.084;8.646;2022-09-24T03:06:30;5.37;;;5.37;;
20844;SDS011;10583;49.084;8.646;2022-09-24T03:08:58;5.73;;;5.73;;
20844;SDS011;10583;49.084;8.646;2022-09-24T03:11:26;5.77;;;5.77;;
20844;SDS011;10583;49.084;8.646;2022-09-24T03:13:56;5.33;;;5.33;;
20844;SDS011;10583;49.084;8.646;2022-09-24T03:16:24;5.10;;;5.10;;
20844;SDS011;10583;49.084;8.646;2022-09-24T03:18:51;5.13;;;5.13;;
20844;SDS011;10583;49.084;8.646;2022-09-24T03:21:20;5.47;;;5.47;;
20844;SDS011;10583;49.084;8.646;2022-09-24T03:23:49;5.53;;;5.53;;
20844;SDS011;10583;49.084;8.646;2022-09-24T03:26:16;5.07;;;5.07;;
20844;SDS011;10583;49.084;8.646;2022-09-24T03:28:43;5.27;;;5.27;;
20844;SDS011;10583;49.084;8.646;2022-09-24T03:31:10;5.80;;;5.80;;
20844;SDS011;10583;49.084;8.646;2022-09-24T03:33:37;5.80;;;5.80;;
20844;SDS011;10583;49.084;8.646;2022-09-24T03:36:06;5.43;;;5.43;;
20844;SDS011;10583;49.084;8.646;2022-09-24T03:38:34;5.03;;;5.03;;
20844;SDS011;10583;49.084;8.646;2022-09-24T03:41:04;5.67;;;5.67;;
20844;SDS011;10583;49.084;8.646;2022-09-24T03:43:32;5.20;;;5.20;;
20844;SDS011;10583;49.084;8.646;2022-09-24T03:45:59;4.83;;;4.83;;
20844;SDS011;10583;49.084;8.646;2022-09-24T03:48:26;5.40;;;5.40;;
20844;SDS011;10583;49.084;8.646;2022-09-24T03:50:53;6.00;;;6.00;;
20844;SDS011;10583;49.084;8.646;2022-09-24T03:53:20;5.57;;;5.57;;
20844;SDS011;10583;49.084;8.646;2022-09-24T03:55:48;6.20;;;6.20;;
20844;SDS011;10583;49.084;8.646;2022-09-24T03:58:20;5.30;;;5.30;;
20844;SDS011;10583;49.084;8.646;2022-09-24T04:00:47;5.13;;;5.13;;
20844;SDS011;10583;49.084;8.646;2022-09-24T04:03:15;6.97;;;6.97;;
20844;SDS011;10583;49.084;8.646;2022-09-24T04:05:42;6.03;;;6.03;;
20844;SDS011;10583;49.084;8.646;2022-09-24T04:08:09;5.80;;;5.80;;
20844;SDS011;10583;49.084;8.646;2022-09-24T04:10:36;5.53;;;5.53;;
20844;SDS011;10583;49.084;8.646;2022-09-24T04:13:03;5.77;;;5.77;;
20844;SDS011;10583;49.084;8.646;2022-09-24T04:15:31;5.80;;;5.80;;
20844;SDS011;10583;49.084;8.646;2022-09-24T04:17:58;5.67;;;5.67;;
20844;SDS011;10583;49.084;8.646;2022-09-24T04:20:26;5.87;;;5.87;;
20844;SDS011;10583;49.084;8.646;2022-09-24T04:22:55;5.90;;;5.90;;
20844;SDS011;10583;49.084;8.646;2022-09-24T04:25:24;6.53;;;6.53;;
20844;SDS011;10583;49.084;8.646;2022-09-24T04:27:55;6.23;;;6.23;;
20844;SDS011;10583;49.084;8.646;2022-09-24T04:30:24;8.27;;;8.27;;
20844;SDS011;10583;49.084;8.646;2022-09-24T04:32:53;7.77;;;7.77;;
20844;SDS011;10583;49.084;8.646;2022-09-24T04:35:21;6.33;;;6.33;;
20844;SDS011;10583;49.084;8.646;2022-09-24T04:37:48;7.40;;;7.40;;
20844;SDS011;10583;49.084;8.646;2022-09-24T04:40:15;6.93;;;6.93;;
20844;SDS011;10583;49.084;8.646;2022-09-24T04:42:42;7.60;;;7.60;;
20844;SDS011;10583;49.084;8.646;2022-09-24T04:45:10;6.17;;;6.17;;
20844;SDS011;10583;49.084;8.646;2022-09-24T04:47:38;6.50;;;6.50;;
20844;SDS011;10583;49.084;8.646;2022-09-24T04:50:08;5.53;;;5.53;;
20844;SDS011;10583;49.084;8.646;2022-09-24T04:52:36;5.67;;;5.67;;
20844;SDS011;10583;49.084;8.646;2022-09-24T04:55:04;5.63;;;5.63;;
20844;SDS011;10583;49.084;8.646;2022-09-24T04:57:32;5.50;;;5.50;;
20844;SDS011;10583;49.084;8.646;2022-09-24T04:59:59;5.20;;;5.20;;
20844;SDS011;10583;49.084;8.646;2022-09-24T05:02:26;5.50;;;5.50;;
20844;SDS011;10583;49.084;8.646;2022-09-24T05:04:53;5.60;;;5.60;;
20844;SDS011;10583;49.084;8.646;2022-09-24T05:07:21;4.93;;;4.93;;
20844;SDS011;10583;49.084;8.646;2022-09-24T05:09:47;5.10;;;5.10;;
20844;SDS011;10583;49.084;8.646;2022-09-24T05:12:14;5.10;;;5.10;;
20844;SDS011;10583;49.084;8.646;2022-09-24T05:14:44;5.90;;;5.90;;
20844;SDS011;10583;49.084;8.646;2022-09-24T05:17:11;7.20;;;7.20;;
20844;SDS011;10583;49.084;8.646;2022-09-24T05:19:37;6.37;;;6.37;;
20844;SDS011;10583;49.084;8.646;2022-09-24T05:22:04;6.03;;;6.03;;
20844;SDS011;10583;49.084;8.646;2022-09-24T05:24:32;5.77;;;5.77;;
20844;SDS011;10583;49.084;8.646;2022-09-24T05:26:59;6.33;;;6.33;;
20844;SDS011;10583;49.084;8.646;2022-09-24T05:29:35;5.47;;;5.47;;
20844;SDS011;10583;49.084;8.646;2022-09-24T05:32:03;6.27;;;6.27;;
20844;SDS011;10583;49.084;8.646;2022-09-24T05:34:31;5.60;;;5.60;;
20844;SDS011;10583;49.084;8.646;2022-09-24T05:36:58;5.20;;;5.20;;
20844;SDS011;10583;49.084;8.646;2022-09-24T05:39:25;5.77;;;5.77;;
20844;SDS011;10583;49.084;8.646;2022-09-24T05:41:53;5.90;;;5.90;;
20844;SDS011;10583;49.084;8.646;2022-09-24T05:44:20;5.80;;;5.80;;
20844;SDS011;10583;49.084;8.646;2022-09-24T05:46:47;5.60;;;5.60;;
20844;SDS011;10583;49.084;8.646;2022-09-24T05:49:14;5.13;;;5.13;;
20844;SDS011;10583;49.084;8.646;2022-09-24T05:51:41;5.30;;;5.30;;
20844;SDS011;10583;49.084;8.646;2022-09-24T05:54:08;5.20;;;5.20;;
20844;SDS011;10583;49.084;8.646;2022-09-24T05:56:35;5.77;;;5.77;;
20844;SDS011;10583;49.084;8.646;2022-09-24T05:59:03;4.87;;;4.87;;
20844;SDS011;10583;49.084;8.646;2022-09-24T06:01:31;5.00;;;5.00;;
20844;SDS011;10583;49.084;8.646;2022-09-24T06:03:58;5.43;;;5.43;;
20844;SDS011;10583;49.084;8.646;2022-09-24T06:06:25;5.60;;;5.60;;
20844;SDS011;10583;49.084;8.646;2022-09-24T06:08:53;5.30;;;5.30;;
20844;SDS011;10583;49.084;8.646;2022-09-24T06:11:20;5.47;;;5.47;;
20844;SDS011;10583;49.084;8.646;2022-09-24T06:13:47;5.33;;;5.33;;
20844;SDS011;10583;49.084;8.646;2022-09-24T06:16:16;5.03;;;5.03;;
20844;SDS011;10583;49.084;8.646;2022-09-24T06:18:43;6.20;;;6.20;;
20844;SDS011;10583;49.084;8.646;2022-09-24T06:21:10;5.47;;;5.47;;
20844;SDS011;10583;49.084;8.646;2022-09-24T06:23:39;5.33;;;5.33;;
20844;SDS011;10583;49.084;8.646;2022-09-24T06:26:07;5.00;;;5.00;;
20844;SDS011;10583;49.084;8.646;2022-09-24T06:28:36;5.53;;;5.53;;
20844;SDS011;10583;49.084;8.646;2022-09-24T06:31:04;5.87;;;5.87;;
20844;SDS011;10583;49.084;8.646;2022-09-24T06:33:33;6.23;;;6.23;;
20844;SDS011;10583;49.084;8.646;2022-09-24T06:36:02;6.00;;;6.00;;
20844;SDS011;10583;49.084;8.646;2022-09-24T06:38:30;5.30;;;5.30;;
20844;SDS011;10583;49.084;8.646;2022-09-24T06:40:57;5.43;;;5.43;;
20844;SDS011;10583;49.084;8.646;2022-09-24T06:43:26;5.83;;;5.83;;
20844;SDS011;10583;49.084;8.646;2022-09-24T06:45:53;6.50;;;6.50;;
20844;SDS011;10583;49.084;8.646;2022-09-24T06:48:21;6.20;;;6.20;;
20844;SDS011;10583;49.084;8.646;2022-09-24T06:50:54;6.43;;;6.43;;
20844;SDS011;10583;49.084;8.646;2022-09-24T06:53:21;7.23;;;7.23;;
20844;SDS011;10583;49.084;8.646;2022-09-24T06:55:49;6.13;;;6.13;;
20844;SDS011;10583;49.084;8.646;2022-09-24T06:58:16;6.87;;;6.87;;
20844;SDS011;10583;49.084;8.646;2022-09-24T07:00:51;7.17;;;7.17;;
20844;SDS011;10583;49.084;8.646;2022-09-24T07:03:19;6.20;;;6.20;;
20844;SDS011;10583;49.084;8.646;2022-09-24T07:05:47;6.07;;;6.07;;
20844;SDS011;10583;49.084;8.646;2022-09-24T07:08:15;6.70;;;6.70;;
20844;SDS011;10583;49.084;8.646;2022-09-24T07:10:43;6.93;;;6.93;;
20844;SDS011;10583;49.084;8.646;2022-09-24T07:13:12;7.70;;;7.70;;
20844;SDS011;10583;49.084;8.646;2022-09-24T07:15:39;8.13;;;8.13;;
20844;SDS011;10583;49.084;8.646;2022-09-24T07:18:07;7.27;;;7.27;;
20844;SDS011;10583;49.084;8.646;2022-09-24T07:20:34;7.57;;;7.57;;
20844;SDS011;10583;49.084;8.646;2022-09-24T07:23:02;6.57;;;6.57;;
20844;SDS011;10583;49.084;8.646;2022-09-24T07:25:31;7.60;;;7.60;;
20844;SDS011;10583;49.084;8.646;2022-09-24T07:28:02;6.90;;;6.90;;
20844;SDS011;10583;49.084;8.646;2022-09-24T07:30:30;6.77;;;6.77;;
20844;SDS011;10583;49.084;8.646;2022-09-24T07:32:57;7.53;;;7.53;;
20844;SDS011;10583;49.084;8.646;2022-09-24T07:35:24;6.50;;;6.50;;
20844;SDS011;10583;49.084;8.646;2022-09-24T07:37:55;7.27;;;7.27;;
20844;SDS011;10583;49.084;8.646;2022-09-24T07:40:23;6.73;;;6.73;;
20844;SDS011;10583;49.084;8.646;2022-09-24T07:42:52;8.30;;;8.27;;
20844;SDS011;10583;49.084;8.646;2022-09-24T07:45:19;7.30;;;7.30;;
20844;SDS011;10583;49.084;8.646;2022-09-24T07:47:47;7.20;;;7.20;;
20844;SDS011;10583;49.084;8.646;2022-09-24T07:50:21;8.23;;;8.23;;
20844;SDS011;10583;49.084;8.646;2022-09-24T07:52:48;8.47;;;8.47;;
20844;SDS011;10583;49.084;8.646;2022-09-24T07:55:15;9.73;;;9.73;;
20844;SDS011;10583;49.084;8.646;2022-09-24T07:57:47;10.27;;;10.17;;
20844;SDS011;10583;49.084;8.646;2022-09-24T08:00:17;10.93;;;10.93;;
20844;SDS011;10583;49.084;8.646;2022-09-24T08:02:46;12.03;;;12.03;;
20844;SDS011;10583;49.084;8.646;2022-09-24T08:05:15;12.17;;;12.07;;
20844;SDS011;10583;49.084;8.646;2022-09-24T08:07:49;12.67;;;12.57;;
20844;SDS011;10583;49.084;8.646;2022-09-24T08:10:16;12.47;;;12.37;;
20844;SDS011;10583;49.084;8.646;2022-09-24T08:12:43;11.43;;;11.43;;
20844;SDS011;10583;49.084;8.646;2022-09-24T08:15:10;11.20;;;11.10;;
20844;SDS011;10583;49.084;8.646;2022-09-24T08:17:38;12.20;;;12.13;;
20844;SDS011;10583;49.084;8.646;2022-09-24T08:20:05;10.73;;;10.73;;
20844;SDS011;10583;49.084;8.646;2022-09-24T08:22:33;10.57;;;10.57;;
20844;SDS011;10583;49.084;8.646;2022-09-24T08:25:00;10.53;;;10.53;;
20844;SDS011;10583;49.084;8.646;2022-09-24T08:27:28;10.20;;;10.20;;
20844;SDS011;10583;49.084;8.646;2022-09-24T08:29:56;9.43;;;9.43;;
20844;SDS011;10583;49.084;8.646;2022-09-24T08:32:24;10.17;;;10.17;;
20844;SDS011;10583;49.084;8.646;2022-09-24T08:34:54;10.47;;;10.47;;
20844;SDS011;10583;49.084;8.646;2022-09-24T08:37:21;9.90;;;9.90;;
20844;SDS011;10583;49.084;8.646;2022-09-24T08:39:48;10.07;;;10.07;;
20844;SDS011;10583;49.084;8.646;2022-09-24T08:42:19;10.27;;;10.27;;
20844;SDS011;10583;49.084;8.646;2022-09-24T08:44:53;10.03;;;10.03;;
20844;SDS011;10583;49.084;8.646;2022-09-24T08:47:41;9.47;;;9.47;;
20844;SDS011;10583;49.084;8.646;2022-09-24T08:50:14;9.23;;;9.23;;
20844;SDS011;10583;49.084;8.646;2022-09-24T08:55:38;9.20;;;9.20;;
20844;SDS011;10583;49.084;8.646;2022-09-24T09:01:11;8.37;;;8.37;;
20844;SDS011;10583;49.084;8.646;2022-09-24T09:03:47;7.57;;;7.57;;
20844;SDS011;10583;49.084;8.646;2022-09-24T09:06:24;7.47;;;7.47;;
20844;SDS011;10583;49.084;8.646;2022-09-24T09:09:12;7.90;;;7.90;;
20844;SDS011;10583;49.084;8.646;2022-09-24T09:11:44;6.60;;;6.60;;
20844;SDS011;10583;49.084;8.646;2022-09-24T09:14:14;7.63;;;7.63;;
20844;SDS011;10583;49.084;8.646;2022-09-24T09:16:46;7.30;;;7.30;;
20844;SDS011;10583;49.084;8.646;2022-09-24T09:19:17;8.00;;;8.00;;
20844;SDS011;10583;49.084;8.646;2022-09-24T09:21:51;7.10;;;7.10;;
20844;SDS011;10583;49.084;8.646;2022-09-24T09:24:24;8.07;;;8.07;;
20844;SDS011;10583;49.084;8.646;2022-09-24T09:26:58;8.37;;;8.37;;
20844;SDS011;10583;49.084;8.646;2022-09-24T09:29:25;7.67;;;7.67;;
20844;SDS011;10583;49.084;8.646;2022-09-24T09:31:55;9.13;;;9.13;;
20844;SDS011;10583;49.084;8.646;2022-09-24T09:34:36;8.30;;;8.30;;
20844;SDS011;10583;49.084;8.646;2022-09-24T09:37:17;7.80;;;7.80;;
20844;SDS011;10583;49.084;8.646;2022-09-24T09:39:53;7.77;;;7.77;;
20844;SDS011;10583;49.084;8.646;2022-09-24T09:42:29;8.00;;;8.00;;
20844;SDS011;10583;49.084;8.646;2022-09-24T09:45:00;8.27;;;8.27;;
20844;SDS011;10583;49.084;8.646;2022-09-24T09:47:34;7.40;;;7.40;;
20844;SDS011;10583;49.084;8.646;2022-09-24T09:50:09;7.27;;;7.27;;
20844;SDS011;10583;49.084;8.646;2022-09-24T09:52:46;7.43;;;7.43;;
20844;SDS011;10583;49.084;8.646;2022-09-24T09:55:19;6.30;;;6.30;;
20844;SDS011;10583;49.084;8.646;2022-09-24T09:57:49;6.77;;;6.77;;
20844;SDS011;10583;49.084;8.646;2022-09-24T10:00:24;7.00;;;7.00;;
20844;SDS011;10583;49.084;8.646;2022-09-24T10:02:53;7.27;;;7.27;;
20844;SDS011;10583;49.084;8.646;2022-09-24T10:05:20;6.93;;;6.93;;
20844;SDS011;10583;49.084;8.646;2022-09-24T10:07:53;7.27;;;7.27;;
20844;SDS011;10583;49.084;8.646;2022-09-24T10:10:22;7.33;;;7.33;;
20844;SDS011;10583;49.084;8.646;2022-09-24T10:12:51;6.53;;;6.53;;
20844;SDS011;10583;49.084;8.646;2022-09-24T10:15:19;7.10;;;7.10;;
20844;SDS011;10583;49.084;8.646;2022-09-24T10:17:49;6.63;;;6.63;;
20844;SDS011;10583;49.084;8.646;2022-09-24T10:20:20;6.23;;;6.23;;
20844;SDS011;10583;49.084;8.646;2022-09-24T10:22:50;6.27;;;6.27;;
20844;SDS011;10583;49.084;8.646;2022-09-24T10:25:21;6.50;;;6.50;;
20844;SDS011;10583;49.084;8.646;2022-09-24T10:27:52;6.77;;;6.77;;
20844;SDS011;10583;49.084;8.646;2022-09-24T10:30:47;7.07;;;7.07;;
20844;SDS011;10583;49.084;8.646;2022-09-24T10:33:17;7.40;;;7.40;;
20844;SDS011;10583;49.084;8.646;2022-09-24T10:35:44;6.70;;;6.70;;
20844;SDS011;10583;49.084;8.646;2022-09-24T10:38:15;7.33;;;7.33;;
20844;SDS011;10583;49.084;8.646;2022-09-24T10:40:46;7.03;;;7.03;;
20844;SDS011;10583;49.084;8.646;2022-09-24T10:43:17;6.60;;;6.60;;
20844;SDS011;10583;49.084;8.646;2022-09-24T10:45:54;6.57;;;6.57;;
20844;SDS011;10583;49.084;8.646;2022-09-24T10:48:38;6.80;;;6.80;;
20844;SDS011;10583;49.084;8.646;2022-09-24T10:51:12;6.87;;;6.87;;
20844;SDS011;10583;49.084;8.646;2022-09-24T10:53:51;7.30;;;7.30;;
20844;SDS011;10583;49.084;8.646;2022-09-24T10:56:32;7.17;;;7.17;;
20844;SDS011;10583;49.084;8.646;2022-09-24T10:59:13;6.67;;;6.67;;
20844;SDS011;10583;49.084;8.646;2022-09-24T11:01:56;6.40;;;6.40;;
20844;SDS011;10583;49.084;8.646;2022-09-24T11:04:42;6.87;;;6.87;;
20844;SDS011;10583;49.084;8.646;2022-09-24T11:07:28;6.00;;;6.00;;
20844;SDS011;10583;49.084;8.646;2022-09-24T11:10:11;6.13;;;6.13;;
20844;SDS011;10583;49.084;8.646;2022-09-24T11:12:53;6.00;;;6.00;;
20844;SDS011;10583;49.084;8.646;2022-09-24T11:15:38;6.00;;;6.00;;
20844;SDS011;10583;49.084;8.646;2022-09-24T11:18:24;6.13;;;6.13;;
20844;SDS011;10583;49.084;8.646;2022-09-24T11:21:02;6.20;;;6.20;;
20844;SDS011;10583;49.084;8.646;2022-09-24T11:23:44;6.63;;;6.63;;
20844;SDS011;10583;49.084;8.646;2022-09-24T11:26:23;6.30;;;6.30;;
20844;SDS011;10583;49.084;8.646;2022-09-24T11:29:05;5.67;;;5.67;;
20844;SDS011;10583;49.084;8.646;2022-09-24T11:31:39;5.57;;;5.57;;
20844;SDS011;10583;49.084;8.646;2022-09-24T11:34:14;6.40;;;6.40;;
20844;SDS011;10583;49.084;8.646;2022-09-24T11:36:56;6.07;;;6.07;;
20844;SDS011;10583;49.084;8.646;2022-09-24T11:39:37;5.97;;;5.97;;
20844;SDS011;10583;49.084;8.646;2022-09-24T11:42:15;5.70;;;5.70;;
20844;SDS011;10583;49.084;8.646;2022-09-24T11:44:55;6.00;;;6.00;;
20844;SDS011;10583;49.084;8.646;2022-09-24T11:47:44;5.40;;;5.40;;
20844;SDS011;10583;49.084;8.646;2022-09-24T11:50:27;5.33;;;5.33;;
20844;SDS011;10583;49.084;8.646;2022-09-24T11:53:07;5.70;;;5.70;;
20844;SDS011;10583;49.084;8.646;2022-09-24T11:55:40;5.27;;;5.27;;
20844;SDS011;10583;49.084;8.646;2022-09-24T11:58:13;5.10;;;5.10;;
20844;SDS011;10583;49.084;8.646;2022-09-24T12:00:45;5.57;;;5.57;;
20844;SDS011;10583;49.084;8.646;2022-09-24T12:03:18;5.60;;;5.60;;
20844;SDS011;10583;49.084;8.646;2022-09-24T12:05:50;6.10;;;6.10;;
20844;SDS011;10583;49.084;8.646;2022-09-24T12:08:22;6.70;;;6.70;;
20844;SDS011;10583;49.084;8.646;2022-09-24T12:10:53;6.87;;;6.87;;
20844;SDS011;10583;49.084;8.646;2022-09-24T12:13:26;5.40;;;5.40;;
20844;SDS011;10583;49.084;8.646;2022-09-24T12:15:58;5.80;;;5.80;;
20844;SDS011;10583;49.084;8.646;2022-09-24T12:18:28;6.23;;;6.23;;
20844;SDS011;10583;49.084;8.646;2022-09-24T12:21:01;5.70;;;5.70;;
20844;SDS011;10583;49.084;8.646;2022-09-24T12:23:34;6.00;;;6.00;;
20844;SDS011;10583;49.084;8.646;2022-09-24T12:26:05;5.80;;;5.80;;
20844;SDS011;10583;49.084;8.646;2022-09-24T12:28:34;5.97;;;5.97;;
20844;SDS011;10583;49.084;8.646;2022-09-24T12:31:27;6.20;;;6.20;;
20844;SDS011;10583;49.084;8.646;2022-09-24T12:34:17;6.00;;;6.00;;
20844;SDS011;10583;49.084;8.646;2022-09-24T12:36:55;5.57;;;5.57;;
20844;SDS011;10583;49.084;8.646;2022-09-24T12:39:29;6.10;;;6.10;;
20844;SDS011;10583;49.084;8.646;2022-09-24T12:42:00;6.20;;;6.20;;
20844;SDS011;10583;49.084;8.646;2022-09-24T12:44:36;5.37;;;5.37;;
20844;SDS011;10583;49.084;8.646;2022-09-24T12:47:14;5.17;;;5.17;;
20844;SDS011;10583;49.084;8.646;2022-09-24T12:49:47;5.10;;;5.10;;
20844;SDS011;10583;49.084;8.646;2022-09-24T12:52:20;5.73;;;5.73;;
20844;SDS011;10583;49.084;8.646;2022-09-24T12:54:53;5.07;;;5.07;;
20844;SDS011;10583;49.084;8.646;2022-09-24T12:57:23;5.20;;;5.20;;
20844;SDS011;10583;49.084;8.646;2022-09-24T12:59:53;4.93;;;4.93;;
20844;SDS011;10583;49.084;8.646;2022-09-24T13:02:23;4.80;;;4.80;;
20844;SDS011;10583;49.084;8.646;2022-09-24T13:07:56;4.90;;;4.90;;
20844;SDS011;10583;49.084;8.646;2022-09-24T13:10:26;4.73;;;4.73;;
20844;SDS011;10583;49.084;8.646;2022-09-24T13:12:55;4.10;;;4.10;;
20844;SDS011;10583;49.084;8.646;2022-09-24T13:15:25;4.60;;;4.60;;
20844;SDS011;10583;49.084;8.646;2022-09-24T13:18:03;4.60;;;4.60;;
20844;SDS011;10583;49.084;8.646;2022-09-24T13:20:41;4.80;;;4.80;;
20844;SDS011;10583;49.084;8.646;2022-09-24T13:23:13;4.57;;;4.57;;
20844;SDS011;10583;49.084;8.646;2022-09-24T13:25:56;4.60;;;4.60;;
20844;SDS011;10583;49.084;8.646;2022-09-24T13:28:27;4.70;;;4.70;;
20844;SDS011;10583;49.084;8.646;2022-09-24T13:30:57;4.60;;;4.60;;
20844;SDS011;10583;49.084;8.646;2022-09-24T13:33:32;4.63;;;4.63;;
20844;SDS011;10583;49.084;8.646;2022-09-24T13:36:09;4.40;;;4.40;;
20844;SDS011;10583;49.084;8.646;2022-09-24T13:38:41;4.40;;;4.40;;
20844;SDS011;10583;49.084;8.646;2022-09-24T13:41:17;5.00;;;5.00;;
20844;SDS011;10583;49.084;8.646;2022-09-24T13:43:53;5.37;;;5.37;;
20844;SDS011;10583;49.084;8.646;2022-09-24T13:46:25;4.73;;;4.73;;
20844;SDS011;10583;49.084;8.646;2022-09-24T13:48:55;4.67;;;4.67;;
20844;SDS011;10583;49.084;8.646;2022-09-24T13:51:27;4.73;;;4.73;;
20844;SDS011;10583;49.084;8.646;2022-09-24T13:53:57;4.53;;;4.53;;
20844;SDS011;10583;49.084;8.646;2022-09-24T13:56:32;4.30;;;4.30;;
20844;SDS011;10583;49.084;8.646;2022-09-24T13:59:03;4.70;;;4.70;;
20844;SDS011;10583;49.084;8.646;2022-09-24T14:01:38;4.30;;;4.30;;
20844;SDS011;10583;49.084;8.646;2022-09-24T14:04:13;4.57;;;4.57;;
20844;SDS011;10583;49.084;8.646;2022-09-24T14:06:44;4.63;;;4.63;;
20844;SDS011;10583;49.084;8.646;2022-09-24T14:09:15;4.23;;;4.23;;
20844;SDS011;10583;49.084;8.646;2022-09-24T14:11:52;4.87;;;4.87;;
20844;SDS011;10583;49.084;8.646;2022-09-24T14:14:21;4.40;;;4.40;;
20844;SDS011;10583;49.084;8.646;2022-09-24T14:16:49;4.20;;;4.20;;
20844;SDS011;10583;49.084;8.646;2022-09-24T14:19:20;4.30;;;4.30;;
20844;SDS011;10583;49.084;8.646;2022-09-24T14:21:50;4.47;;;4.47;;
20844;SDS011;10583;49.084;8.646;2022-09-24T14:24:20;4.30;;;4.30;;
20844;SDS011;10583;49.084;8.646;2022-09-24T14:26:51;4.57;;;4.57;;
20844;SDS011;10583;49.084;8.646;2022-09-24T14:29:21;4.27;;;4.27;;
20844;SDS011;10583;49.084;8.646;2022-09-24T14:31:52;4.03;;;4.03;;
20844;SDS011;10583;49.084;8.646;2022-09-24T14:34:29;4.63;;;4.63;;
20844;SDS011;10583;49.084;8.646;2022-09-24T14:37:04;4.37;;;4.37;;
20844;SDS011;10583;49.084;8.646;2022-09-24T14:39:36;4.53;;;4.53;;
20844;SDS011;10583;49.084;8.646;2022-09-24T14:42:07;4.30;;;4.30;;
20844;SDS011;10583;49.084;8.646;2022-09-24T14:44:38;4.33;;;4.33;;
20844;SDS011;10583;49.084;8.646;2022-09-24T14:47:21;4.37;;;4.37;;
20844;SDS011;10583;49.084;8.646;2022-09-24T14:49:52;4.43;;;4.43;;
20844;SDS011;10583;49.084;8.646;2022-09-24T14:52:27;4.60;;;4.60;;
20844;SDS011;10583;49.084;8.646;2022-09-24T14:55:00;4.43;;;4.43;;
20844;SDS011;10583;49.084;8.646;2022-09-24T14:57:41;4.10;;;4.10;;
20844;SDS011;10583;49.084;8.646;2022-09-24T15:00:19;4.10;;;4.10;;
20844;SDS011;10583;49.084;8.646;2022-09-24T15:02:49;4.60;;;4.60;;
20844;SDS011;10583;49.084;8.646;2022-09-24T15:05:24;3.90;;;3.90;;
20844;SDS011;10583;49.084;8.646;2022-09-24T15:07:53;4.10;;;4.10;;
20844;SDS011;10583;49.084;8.646;2022-09-24T15:10:51;4.30;;;4.30;;
20844;SDS011;10583;49.084;8.646;2022-09-24T15:13:21;3.60;;;3.60;;
20844;SDS011;10583;49.084;8.646;2022-09-24T15:15:59;4.43;;;4.43;;
20844;SDS011;10583;49.084;8.646;2022-09-24T15:18:27;4.30;;;4.30;;
20844;SDS011;10583;49.084;8.646;2022-09-24T15:20:57;4.10;;;4.10;;